createdAt,value
2022-10-24T00:00:33.588Z,81.93
2022-10-24T00:01:33.558Z,82.07
2022-10-24T00:02:33.547Z,81.67
2022-10-24T00:03:33.477Z,81.42
2022-10-24T00:04:33.473Z,81.52
2022-10-24T00:05:33.488Z,81.22
2022-10-24T00:06:33.448Z,81.32
2022-10-24T00:07:33.433Z,81.22
2022-10-24T00:08:33.438Z,81.32
2022-10-24T00:09:33.409Z,81.32
2022-10-24T00:10:33.405Z,81.22
2022-10-24T00:11:33.397Z,81.02
2022-10-24T00:12:33.386Z,80.82
2022-10-24T00:13:33.570Z,80.72
2022-10-24T00:14:33.367Z,80.51
2022-10-24T00:15:33.334Z,80.38
2022-10-24T00:16:33.316Z,80.51
2022-10-24T00:17:33.356Z,80.47
2022-10-24T00:18:33.305Z,80.62
2022-10-24T00:19:33.279Z,80.82
2022-10-24T00:20:33.370Z,81.02
2022-10-24T00:21:33.258Z,80.82
2022-10-24T00:22:33.247Z,80.07
2022-10-24T00:23:33.235Z,79.97
2022-10-24T00:24:33.223Z,79.87
2022-10-24T00:25:33.199Z,79.67
2022-10-24T00:26:33.218Z,79.87
2022-10-24T00:27:33.172Z,79.77
2022-10-24T00:28:33.159Z,79.87
2022-10-24T00:29:33.158Z,79.97
2022-10-24T00:30:33.361Z,79.97
2022-10-24T00:31:33.155Z,79.57
2022-10-24T00:32:33.114Z,79.77
2022-10-24T00:33:33.094Z,79.57
2022-10-24T00:34:33.085Z,79.06
2022-10-24T00:35:33.087Z,79.16
2022-10-24T00:36:33.278Z,78.86
2022-10-24T00:37:33.072Z,78.96
2022-10-24T00:38:33.029Z,78.76
2022-10-24T00:39:33.019Z,78.56
2022-10-24T00:40:33.002Z,78.76
2022-10-24T00:41:33.025Z,78.46
2022-10-24T00:42:32.972Z,78.66
2022-10-24T00:43:32.971Z,78.56
2022-10-24T00:44:32.968Z,78.66
2022-10-24T00:45:32.974Z,78.76
2022-10-24T00:46:32.918Z,77.95
2022-10-24T00:47:33.450Z,77.95
2022-10-24T00:48:32.911Z,77.95
2022-10-24T00:49:32.904Z,77.95
2022-10-24T00:50:32.865Z,78.06
2022-10-24T00:51:33.095Z,77.95
2022-10-24T00:52:32.853Z,78.06
2022-10-24T00:53:32.851Z,78.26
2022-10-24T00:54:32.860Z,78.06
2022-10-24T00:55:32.809Z,78.06
2022-10-24T00:56:32.797Z,77.95
2022-10-24T00:57:32.781Z,77.86
2022-10-24T00:58:32.797Z,77.55
2022-10-24T00:59:32.785Z,77.55
2022-10-24T01:00:32.789Z,77.55
2022-10-24T01:01:32.754Z,77.51
2022-10-24T01:02:32.731Z,77.35
2022-10-24T01:03:32.705Z,77.45
2022-10-24T01:04:32.707Z,77.15
2022-10-24T01:05:33.242Z,77.21
2022-10-24T01:06:32.688Z,76.91
2022-10-24T01:07:32.645Z,76.81
2022-10-24T01:08:32.643Z,76.51
2022-10-24T01:09:32.643Z,76.31
2022-10-24T01:10:32.672Z,75.87
2022-10-24T01:11:32.839Z,75.87
2022-10-24T01:12:32.582Z,75.36
2022-10-24T01:13:32.819Z,75.36
2022-10-24T01:14:32.574Z,74.86
2022-10-24T01:15:32.580Z,74.55
2022-10-24T01:16:32.542Z,74.02
2022-10-24T01:17:33.385Z,73.61
2022-10-24T01:18:32.506Z,73.21
2022-10-24T01:19:32.508Z,73.11
2022-10-24T01:20:32.732Z,73.21
2022-10-24T01:21:32.479Z,73.32
2022-10-24T01:22:32.463Z,73.61
2022-10-24T01:23:32.749Z,73.72
2022-10-24T01:24:32.449Z,73.92
2022-10-24T01:25:33.263Z,74.05
2022-10-24T01:26:32.411Z,74.26
2022-10-24T01:27:32.403Z,74.35
2022-10-24T01:28:32.387Z,74.46
2022-10-24T01:29:32.396Z,74.35
2022-10-24T01:30:32.349Z,74.35
2022-10-24T01:31:32.344Z,74.15
2022-10-24T01:32:32.343Z,73.95
2022-10-24T01:33:32.556Z,74.35
2022-10-24T01:34:32.316Z,74.46
2022-10-24T01:35:32.376Z,74.46
2022-10-24T01:36:32.272Z,74.46
2022-10-24T01:37:32.273Z,74.55
2022-10-24T01:38:32.244Z,74.26
2022-10-24T01:39:32.244Z,73.95
2022-10-24T01:40:32.218Z,73.55
2022-10-24T01:41:32.223Z,73.41
2022-10-24T01:42:32.416Z,73.01
2022-10-24T01:43:32.178Z,73.32
2022-10-24T01:44:32.179Z,73.52
2022-10-24T01:45:32.165Z,73.75
2022-10-24T01:46:32.154Z,73.85
2022-10-24T01:47:32.187Z,73.65
2022-10-24T01:48:32.353Z,73.85
2022-10-24T01:49:32.108Z,73.95
2022-10-24T01:50:32.102Z,73.65
2022-10-24T01:51:32.312Z,73.55
2022-10-24T01:52:32.749Z,73.75
2022-10-24T01:53:32.085Z,73.95
2022-10-24T01:54:32.734Z,73.85
2022-10-24T01:55:32.028Z,73.85
2022-10-24T01:56:32.036Z,74.05
2022-10-24T01:57:32.009Z,73.65
2022-10-24T01:58:31.996Z,73.75
2022-10-24T01:59:32.209Z,73.75
2022-10-24T02:00:32.217Z,73.85
2022-10-24T02:01:32.047Z,73.95
2022-10-24T02:02:31.943Z,73.75
2022-10-24T02:03:31.926Z,73.75
2022-10-24T02:04:31.956Z,73.65
2022-10-24T02:05:31.903Z,73.65
2022-10-24T02:06:31.901Z,73.65
2022-10-24T02:07:31.876Z,73.65
2022-10-24T02:08:31.870Z,73.85
2022-10-24T02:09:31.848Z,73.45
2022-10-24T02:10:31.849Z,73.25
2022-10-24T02:11:31.841Z,72.81
2022-10-24T02:12:31.808Z,72.51
2022-10-24T02:13:31.801Z,72.61
2022-10-24T02:14:31.776Z,72.41
2022-10-24T02:15:31.817Z,72.41
2022-10-24T02:16:31.764Z,72.61
2022-10-24T02:17:31.768Z,72.71
2022-10-24T02:18:31.735Z,72.51
2022-10-24T02:19:31.949Z,72.41
2022-10-24T02:20:31.698Z,72.51
2022-10-24T02:21:31.706Z,72.64
2022-10-24T02:22:31.674Z,72.51
2022-10-24T02:23:31.706Z,72.81
2022-10-24T02:24:31.666Z,72.51
2022-10-24T02:25:31.940Z,72.64
2022-10-24T02:26:31.627Z,72.31
2022-10-24T02:27:31.609Z,72.11
2022-10-24T02:28:31.604Z,72.31
2022-10-24T02:29:31.598Z,72.44
2022-10-24T02:30:31.607Z,72.54
2022-10-24T02:31:31.563Z,72.44
2022-10-24T02:32:31.541Z,72.24
2022-10-24T02:33:32.252Z,72.24
2022-10-24T02:34:31.525Z,72.44
2022-10-24T02:35:31.527Z,72.44
2022-10-24T02:36:31.498Z,72.34
2022-10-24T02:37:31.498Z,72.04
2022-10-24T02:38:31.465Z,71.84
2022-10-24T02:39:31.457Z,72.04
2022-10-24T02:40:31.466Z,72.14
2022-10-24T02:41:31.441Z,72.34
2022-10-24T02:42:31.442Z,71.94
2022-10-24T02:43:31.409Z,71.53
2022-10-24T02:44:31.388Z,70.79
2022-10-24T02:45:31.394Z,71.00
2022-10-24T02:46:31.368Z,70.90
2022-10-24T02:47:31.427Z,70.50
2022-10-24T02:48:31.343Z,70.59
2022-10-24T02:49:31.324Z,70.29
2022-10-24T02:50:31.308Z,69.96
2022-10-24T02:51:31.349Z,70.19
2022-10-24T02:52:31.296Z,69.99
2022-10-24T02:53:31.301Z,70.29
2022-10-24T02:54:31.276Z,70.39
2022-10-24T02:55:31.265Z,70.09
2022-10-24T02:56:31.239Z,70.19
2022-10-24T02:57:31.231Z,70.09
2022-10-24T02:58:31.235Z,69.15
2022-10-24T02:59:31.206Z,69.15
2022-10-24T03:00:31.234Z,69.05
2022-10-24T03:01:31.254Z,69.35
2022-10-24T03:02:31.158Z,69.29
2022-10-24T03:03:31.373Z,69.59
2022-10-24T03:04:31.127Z,69.59
2022-10-24T03:05:31.133Z,69.79
2022-10-24T03:06:31.106Z,69.49
2022-10-24T03:08:31.084Z,69.05
2022-10-24T03:09:31.065Z,69.29
2022-10-24T03:10:31.065Z,69.29
2022-10-24T03:11:31.066Z,69.38
2022-10-24T03:12:31.030Z,68.65
2022-10-24T03:13:31.016Z,68.75
2022-10-24T03:14:31.014Z,69.15
2022-10-24T03:15:31.005Z,69.49
2022-10-24T03:16:31.002Z,69.59
2022-10-24T03:17:31.001Z,69.59
2022-10-24T03:18:30.964Z,69.69
2022-10-24T03:19:30.946Z,69.49
2022-10-24T03:20:30.932Z,69.29
2022-10-24T03:21:30.922Z,69.49
2022-10-24T03:22:31.076Z,69.59
2022-10-24T03:23:30.937Z,69.99
2022-10-24T03:24:43.529Z,69.49
2022-10-24T03:25:30.868Z,69.59
2022-10-24T03:26:30.873Z,69.49
2022-10-24T03:27:30.833Z,69.79
2022-10-24T03:28:30.823Z,69.79
2022-10-24T03:29:30.830Z,69.69
2022-10-24T03:30:30.800Z,69.79
2022-10-24T03:31:30.888Z,69.99
2022-10-24T03:32:30.784Z,70.09
2022-10-24T03:33:30.765Z,70.09
2022-10-24T03:34:30.748Z,70.22
2022-10-24T03:35:30.754Z,70.32
2022-10-24T03:36:30.765Z,70.42
2022-10-24T03:37:30.716Z,70.73
2022-10-24T03:38:30.721Z,70.83
2022-10-24T03:39:30.686Z,70.93
2022-10-24T03:40:30.735Z,71.13
2022-10-24T03:41:30.666Z,70.93
2022-10-24T03:42:30.648Z,71.03
2022-10-24T03:43:30.635Z,71.13
2022-10-24T03:44:30.627Z,71.03
2022-10-24T03:45:30.605Z,71.00
2022-10-24T03:46:30.591Z,71.20
2022-10-24T03:47:30.615Z,71.13
2022-10-24T03:48:30.604Z,71.33
2022-10-24T03:49:30.554Z,71.23
2022-10-24T03:50:30.549Z,71.33
2022-10-24T03:51:30.533Z,71.53
2022-10-24T03:52:30.522Z,71.94
2022-10-24T03:53:30.550Z,71.64
2022-10-24T03:54:30.498Z,71.64
2022-10-24T03:55:30.471Z,71.64
2022-10-24T03:56:30.463Z,71.64
2022-10-24T03:57:30.455Z,71.73
2022-10-24T03:58:30.434Z,71.64
2022-10-24T03:59:30.444Z,71.53
2022-10-24T04:00:30.419Z,71.53
2022-10-24T04:01:30.513Z,71.03
2022-10-24T04:02:30.384Z,71.13
2022-10-24T04:03:30.377Z,71.13
2022-10-24T04:04:30.358Z,70.93
2022-10-24T04:05:30.402Z,70.93
2022-10-24T04:06:32.664Z,71.13
2022-10-24T04:07:30.349Z,71.03
2022-10-24T04:08:30.311Z,71.03
2022-10-24T04:09:30.327Z,70.83
2022-10-24T04:10:30.281Z,70.93
2022-10-24T04:11:30.310Z,71.13
2022-10-24T04:12:30.273Z,71.03
2022-10-24T04:13:30.245Z,71.13
2022-10-24T04:14:30.231Z,71.44
2022-10-24T04:15:30.222Z,71.33
2022-10-24T04:16:30.236Z,71.33
2022-10-24T04:17:30.210Z,71.44
2022-10-24T04:18:30.173Z,71.67
2022-10-24T04:19:30.179Z,71.77
2022-10-24T04:20:30.154Z,71.77
2022-10-24T04:21:30.150Z,71.77
2022-10-24T04:22:30.125Z,71.87
2022-10-24T04:23:30.136Z,71.47
2022-10-24T04:24:30.091Z,71.77
2022-10-24T04:25:30.089Z,71.77
2022-10-24T04:26:30.098Z,71.77
2022-10-24T04:27:30.062Z,71.67
2022-10-24T04:28:30.064Z,71.57
2022-10-24T04:29:30.065Z,71.97
2022-10-24T04:30:30.116Z,71.97
2022-10-24T04:31:30.005Z,72.41
2022-10-24T04:32:30.029Z,72.51
2022-10-24T04:33:29.989Z,72.61
2022-10-24T04:34:29.972Z,72.51
2022-10-24T04:35:29.980Z,72.71
2022-10-24T04:36:29.945Z,72.51
2022-10-24T04:37:29.933Z,72.51
2022-10-24T04:38:33.395Z,72.41
2022-10-24T04:39:29.904Z,72.41
2022-10-24T04:40:29.908Z,72.20
2022-10-24T04:41:29.898Z,72.41
2022-10-24T04:42:29.917Z,72.71
2022-10-24T04:43:29.852Z,72.51
2022-10-24T04:44:29.842Z,72.51
2022-10-24T04:45:29.834Z,72.71
2022-10-24T04:46:29.817Z,72.81
2022-10-24T04:47:29.815Z,72.91
2022-10-24T04:48:29.830Z,73.25
2022-10-24T04:49:29.781Z,73.35
2022-10-24T04:50:29.767Z,73.45
2022-10-24T04:51:29.741Z,73.55
2022-10-24T04:52:29.754Z,73.45
2022-10-24T04:53:29.730Z,73.25
2022-10-24T04:54:29.710Z,73.15
2022-10-24T04:55:29.733Z,73.15
2022-10-24T04:56:29.701Z,73.05
2022-10-24T04:57:29.695Z,73.15
2022-10-24T04:58:29.659Z,73.05
2022-10-24T04:59:29.655Z,72.95
2022-10-24T05:00:29.624Z,72.85
2022-10-24T05:01:29.665Z,72.95
2022-10-24T05:02:29.672Z,72.85
2022-10-24T05:03:29.596Z,72.95
2022-10-24T05:04:29.578Z,72.75
2022-10-24T05:05:29.587Z,72.64
2022-10-24T05:06:29.555Z,72.11
2022-10-24T05:07:29.537Z,71.50
2022-10-24T05:08:29.567Z,71.30
2022-10-24T05:09:29.516Z,71.40
2022-10-24T05:10:29.524Z,71.80
2022-10-24T05:11:29.530Z,72.00
2022-10-24T05:12:29.507Z,72.11
2022-10-24T05:13:31.829Z,71.80
2022-10-24T05:14:29.449Z,72.00
2022-10-24T05:15:29.446Z,72.00
2022-10-24T05:16:29.431Z,72.00
2022-10-24T05:17:29.439Z,72.14
2022-10-24T05:18:29.432Z,72.14
2022-10-24T05:19:29.435Z,72.24
2022-10-24T05:20:29.417Z,72.34
2022-10-24T05:21:29.362Z,72.34
2022-10-24T05:22:29.358Z,71.84
2022-10-24T05:23:29.347Z,71.70
2022-10-24T05:24:29.325Z,71.91
2022-10-24T05:25:29.315Z,72.34
2022-10-24T05:26:29.287Z,72.44
2022-10-24T05:27:29.278Z,72.34
2022-10-24T05:28:29.277Z,72.54
2022-10-24T05:29:29.278Z,72.75
2022-10-24T05:30:29.243Z,72.98
2022-10-24T05:31:29.256Z,72.95
2022-10-24T05:32:29.212Z,72.75
2022-10-24T05:33:29.200Z,72.85
2022-10-24T05:34:29.147Z,72.95
2022-10-24T05:35:29.383Z,73.05
2022-10-24T05:36:29.137Z,73.18
2022-10-24T05:38:29.086Z,73.18
2022-10-24T05:39:29.078Z,72.98
2022-10-24T05:40:29.089Z,72.88
2022-10-24T05:41:29.060Z,72.98
2022-10-24T05:42:29.048Z,72.75
2022-10-24T05:43:29.034Z,72.88
2022-10-24T05:44:29.029Z,72.98
2022-10-24T05:45:28.992Z,73.18
2022-10-24T05:46:28.986Z,72.75
2022-10-24T05:47:29.327Z,72.98
2022-10-24T05:48:28.956Z,73.18
2022-10-24T05:49:28.955Z,73.28
2022-10-24T05:50:28.922Z,73.28
2022-10-24T05:51:28.927Z,72.98
2022-10-24T05:52:28.905Z,73.28
2022-10-24T05:53:28.921Z,72.98
2022-10-24T05:54:37.531Z,73.08
2022-10-24T05:55:28.863Z,73.18
2022-10-24T05:56:28.853Z,72.98
2022-10-24T05:57:28.860Z,73.08
2022-10-24T05:58:28.858Z,72.98
2022-10-24T05:59:28.824Z,72.98
2022-10-24T06:00:28.947Z,72.88
2022-10-24T06:01:28.844Z,72.98
2022-10-24T06:02:28.889Z,72.78
2022-10-24T06:03:28.817Z,72.68
2022-10-24T06:04:28.740Z,72.58
2022-10-24T06:05:28.772Z,72.68
2022-10-24T06:06:28.713Z,72.88
2022-10-24T06:07:28.741Z,72.78
2022-10-24T06:08:28.697Z,72.78
2022-10-24T06:09:28.821Z,72.58
2022-10-24T06:10:28.721Z,72.58
2022-10-24T06:11:28.726Z,72.58
2022-10-24T06:12:28.653Z,72.68
2022-10-24T06:13:32.527Z,72.58
2022-10-24T06:14:28.639Z,72.48
2022-10-24T06:15:28.633Z,72.38
2022-10-24T06:16:28.582Z,72.48
2022-10-24T06:17:28.649Z,72.48
2022-10-24T06:18:28.586Z,72.17
2022-10-24T06:19:28.544Z,72.17
2022-10-24T06:20:28.728Z,71.77
2022-10-24T06:21:28.514Z,71.33
2022-10-24T06:22:28.519Z,71.33
2022-10-24T06:23:28.566Z,71.13
2022-10-24T06:24:35.012Z,71.13
2022-10-24T06:25:28.469Z,71.44
2022-10-24T06:26:28.496Z,71.67
2022-10-24T06:27:28.443Z,71.67
2022-10-24T06:28:28.441Z,71.53
2022-10-24T06:29:28.432Z,71.23
2022-10-24T06:30:28.468Z,71.23
2022-10-24T06:31:28.389Z,71.03
2022-10-24T06:32:28.408Z,71.23
2022-10-24T06:33:28.372Z,71.44
2022-10-24T06:34:28.371Z,71.33
2022-10-24T06:35:28.462Z,71.44
2022-10-24T06:36:30.707Z,71.47
2022-10-24T06:37:28.317Z,71.13
2022-10-24T06:38:28.300Z,71.13
2022-10-24T06:39:28.303Z,71.13
2022-10-24T06:40:28.291Z,71.03
2022-10-24T06:41:28.270Z,70.93
2022-10-24T06:42:28.246Z,71.13
2022-10-24T06:43:28.256Z,71.13
2022-10-24T06:44:28.232Z,71.33
2022-10-24T06:45:28.212Z,71.23
2022-10-24T06:46:28.194Z,71.03
2022-10-24T06:47:28.348Z,71.13
2022-10-24T06:48:28.173Z,70.93
2022-10-24T06:49:28.164Z,71.23
2022-10-24T06:50:28.168Z,71.03
2022-10-24T06:51:28.181Z,70.93
2022-10-24T06:52:28.137Z,70.83
2022-10-24T06:53:28.139Z,70.93
2022-10-24T06:54:30.261Z,70.93
2022-10-24T06:55:28.093Z,70.62
2022-10-24T06:56:28.092Z,70.39
2022-10-24T06:57:28.059Z,70.39
2022-10-24T06:58:28.045Z,70.42
2022-10-24T06:59:28.064Z,70.62
2022-10-24T07:01:28.183Z,71.03
2022-10-24T07:02:28.194Z,71.03
2022-10-24T07:03:27.979Z,71.13
2022-10-24T07:04:27.971Z,71.13
2022-10-24T07:05:27.976Z,70.93
2022-10-24T07:06:27.945Z,71.03
2022-10-24T07:07:27.935Z,71.13
2022-10-24T07:08:27.955Z,70.79
2022-10-24T07:09:27.907Z,70.83
2022-10-24T07:10:27.882Z,70.93
2022-10-24T07:11:27.905Z,70.79
2022-10-24T07:12:27.874Z,70.79
2022-10-24T07:13:27.856Z,70.59
2022-10-24T07:14:27.864Z,70.49
2022-10-24T07:15:27.875Z,70.29
2022-10-24T07:16:27.836Z,70.39
2022-10-24T07:17:27.829Z,69.95
2022-10-24T07:18:27.785Z,69.55
2022-10-24T07:19:27.775Z,69.55
2022-10-24T07:20:27.804Z,69.75
2022-10-24T07:21:27.890Z,69.45
2022-10-24T07:22:30.241Z,69.55
2022-10-24T07:23:27.779Z,69.55
2022-10-24T07:24:27.726Z,69.75
2022-10-24T07:25:27.693Z,69.65
2022-10-24T07:26:27.700Z,69.45
2022-10-24T07:27:27.680Z,69.55
2022-10-24T07:28:27.657Z,69.65
2022-10-24T07:29:27.668Z,69.55
2022-10-24T07:30:27.648Z,69.35
2022-10-24T07:31:27.669Z,69.05
2022-10-24T07:32:27.619Z,68.95
2022-10-24T07:33:27.592Z,69.35
2022-10-24T07:34:27.593Z,69.25
2022-10-24T07:35:27.574Z,69.25
2022-10-24T07:36:27.573Z,69.12
2022-10-24T07:37:27.563Z,69.15
2022-10-24T07:38:27.519Z,68.71
2022-10-24T07:39:27.510Z,69.15
2022-10-24T07:40:27.550Z,69.25
2022-10-24T07:41:27.508Z,69.55
2022-10-24T07:42:27.479Z,69.35
2022-10-24T07:43:27.473Z,69.55
2022-10-24T07:44:27.441Z,69.85
2022-10-24T07:45:27.499Z,70.15
2022-10-24T07:46:27.432Z,69.85
2022-10-24T07:47:27.438Z,69.85
2022-10-24T07:48:33.908Z,70.19
2022-10-24T07:49:30.238Z,70.49
2022-10-24T07:50:27.378Z,70.39
2022-10-24T07:51:27.367Z,69.95
2022-10-24T07:52:27.360Z,69.75
2022-10-24T07:53:27.335Z,69.75
2022-10-24T07:54:28.923Z,69.35
2022-10-24T07:55:27.312Z,69.45
2022-10-24T07:56:27.347Z,69.25
2022-10-24T07:57:27.298Z,69.55
2022-10-24T07:58:27.267Z,69.55
2022-10-24T07:59:41.320Z,69.45
2022-10-24T08:00:27.242Z,69.75
2022-10-24T08:01:27.292Z,69.85
2022-10-24T08:02:27.252Z,70.09
2022-10-24T08:03:27.202Z,70.09
2022-10-24T08:04:27.195Z,70.19
2022-10-24T08:05:27.193Z,70.39
2022-10-24T08:06:27.258Z,70.49
2022-10-24T08:07:27.165Z,70.59
2022-10-24T08:08:36.637Z,70.39
2022-10-24T08:09:27.149Z,70.49
2022-10-24T08:10:27.143Z,70.19
2022-10-24T08:11:27.135Z,70.19
2022-10-24T08:12:27.089Z,70.09
2022-10-24T08:13:27.126Z,70.06
2022-10-24T08:14:28.102Z,69.75
2022-10-24T08:15:27.065Z,69.95
2022-10-24T08:21:02.413Z,69.85
2022-10-24T08:21:07.381Z,69.45
2022-10-24T08:22:07.303Z,69.65
2022-10-24T08:23:07.296Z,69.85
2022-10-24T08:24:07.279Z,69.65
2022-10-24T08:25:07.269Z,69.25
2022-10-24T08:26:07.283Z,69.35
2022-10-24T08:27:07.279Z,69.45
2022-10-24T08:28:09.106Z,68.85
2022-10-24T08:29:07.204Z,69.65
2022-10-24T08:30:07.252Z,69.35
2022-10-24T08:31:07.201Z,69.45
2022-10-24T08:32:07.286Z,69.65
2022-10-24T08:33:07.169Z,69.65
2022-10-24T08:34:07.147Z,69.65
2022-10-24T08:35:07.131Z,69.35
2022-10-24T08:36:07.150Z,69.55
2022-10-24T08:37:07.117Z,69.55
2022-10-24T08:38:07.100Z,69.65
2022-10-24T08:39:07.107Z,69.35
2022-10-24T08:40:07.076Z,69.45
2022-10-24T08:41:07.066Z,69.35
2022-10-24T08:42:07.087Z,69.35
2022-10-24T08:43:07.034Z,69.15
2022-10-24T08:44:07.062Z,69.05
2022-10-24T08:45:07.028Z,69.25
2022-10-24T08:46:06.990Z,68.95
2022-10-24T08:47:07.060Z,68.85
2022-10-24T08:48:06.966Z,68.74
2022-10-24T08:49:06.984Z,68.65
2022-10-24T08:50:06.976Z,68.65
2022-10-24T08:51:06.945Z,69.05
2022-10-24T08:52:06.944Z,69.05
2022-10-24T08:53:06.902Z,68.54
2022-10-24T08:54:06.927Z,68.95
2022-10-24T08:55:07.430Z,69.05
2022-10-24T08:56:06.883Z,69.35
2022-10-24T08:57:06.875Z,69.45
2022-10-24T08:58:06.835Z,69.55
2022-10-24T08:59:06.868Z,69.55
2022-10-24T09:00:06.851Z,69.25
2022-10-24T09:01:07.014Z,69.55
2022-10-24T09:02:07.925Z,69.45
2022-10-24T09:03:06.851Z,69.25
2022-10-24T09:04:06.766Z,69.15
2022-10-24T09:05:06.789Z,69.05
2022-10-24T09:06:06.977Z,69.35
2022-10-24T09:07:06.746Z,69.45
2022-10-24T09:08:06.734Z,69.45
2022-10-24T09:09:07.099Z,69.48
2022-10-24T09:10:06.730Z,69.59
2022-10-24T09:11:06.685Z,69.89
2022-10-24T09:12:06.670Z,69.99
2022-10-24T09:13:06.709Z,69.89
2022-10-24T09:14:06.656Z,69.89
2022-10-24T09:15:06.651Z,69.99
2022-10-24T09:16:06.611Z,70.09
2022-10-24T09:17:06.731Z,70.09
2022-10-24T09:18:08.603Z,70.19
2022-10-24T09:19:06.584Z,70.19
2022-10-24T09:20:06.565Z,70.19
2022-10-24T09:21:06.570Z,70.19
2022-10-24T09:22:06.539Z,70.39
2022-10-24T09:23:06.761Z,70.49
2022-10-24T09:24:06.522Z,69.89
2022-10-24T09:25:06.556Z,70.19
2022-10-24T09:26:06.545Z,70.19
2022-10-24T09:27:07.440Z,70.19
2022-10-24T09:28:06.490Z,70.29
2022-10-24T09:29:06.462Z,70.39
2022-10-24T09:30:06.497Z,70.49
2022-10-24T09:31:06.438Z,70.49
2022-10-24T09:32:06.487Z,70.59
2022-10-24T09:33:06.496Z,70.49
2022-10-24T09:34:06.385Z,70.09
2022-10-24T09:35:06.370Z,69.99
2022-10-24T09:36:06.480Z,70.06
2022-10-24T09:37:06.346Z,70.06
2022-10-24T09:38:06.352Z,69.85
2022-10-24T09:39:06.366Z,69.75
2022-10-24T09:40:06.328Z,69.55
2022-10-24T09:41:06.303Z,69.65
2022-10-24T09:42:06.279Z,69.85
2022-10-24T09:43:08.097Z,69.85
2022-10-24T09:44:06.316Z,69.65
2022-10-24T09:45:06.270Z,69.79
2022-10-24T09:46:06.244Z,70.09
2022-10-24T09:47:07.267Z,70.09
2022-10-24T09:48:06.237Z,70.09
2022-10-24T09:49:06.220Z,69.75
2022-10-24T09:50:06.191Z,69.48
2022-10-24T09:51:06.203Z,69.55
2022-10-24T09:52:06.194Z,69.79
2022-10-24T09:53:06.218Z,69.85
2022-10-24T09:54:06.198Z,69.99
2022-10-24T09:55:06.114Z,69.95
2022-10-24T09:56:06.136Z,70.06
2022-10-24T09:57:06.168Z,69.85
2022-10-24T09:58:06.088Z,69.65
2022-10-24T09:59:06.081Z,69.65
2022-10-24T10:00:06.085Z,69.32
2022-10-24T10:01:06.267Z,69.01
2022-10-24T10:02:06.143Z,69.01
2022-10-24T10:03:06.075Z,69.12
2022-10-24T10:04:09.367Z,69.32
2022-10-24T10:05:05.986Z,69.45
2022-10-24T10:06:06.032Z,69.45
2022-10-24T10:07:05.970Z,69.21
2022-10-24T10:08:05.953Z,68.91
2022-10-24T10:09:05.978Z,69.21
2022-10-24T10:10:05.932Z,68.81
2022-10-24T10:11:05.929Z,68.61
2022-10-24T10:12:05.918Z,69.01
2022-10-24T10:13:05.905Z,69.15
2022-10-24T10:14:05.886Z,69.21
2022-10-24T10:15:05.890Z,69.12
2022-10-24T10:16:05.839Z,69.42
2022-10-24T10:17:05.863Z,69.42
2022-10-24T10:18:05.836Z,69.42
2022-10-24T10:19:05.799Z,69.42
2022-10-24T10:20:05.924Z,69.52
2022-10-24T10:21:05.813Z,69.52
2022-10-24T10:22:05.786Z,69.72
2022-10-24T10:23:05.801Z,69.82
2022-10-24T10:24:05.749Z,69.82
2022-10-24T10:25:05.834Z,69.82
2022-10-24T10:26:05.725Z,69.92
2022-10-24T10:27:06.272Z,69.92
2022-10-24T10:28:05.692Z,70.02
2022-10-24T10:29:05.725Z,69.95
2022-10-24T10:30:05.673Z,70.15
2022-10-24T10:31:05.673Z,70.02
2022-10-24T10:32:05.636Z,69.72
2022-10-24T10:33:05.665Z,69.72
2022-10-24T10:34:06.222Z,69.92
2022-10-24T10:35:05.657Z,69.92
2022-10-24T10:36:05.826Z,69.32
2022-10-24T10:37:07.194Z,69.52
2022-10-24T10:38:05.606Z,69.42
2022-10-24T10:39:05.625Z,69.62
2022-10-24T10:40:05.594Z,69.82
2022-10-24T10:41:05.529Z,69.52
2022-10-24T10:42:05.557Z,69.62
2022-10-24T10:43:05.524Z,69.52
2022-10-24T10:44:05.513Z,69.52
2022-10-24T10:45:05.517Z,69.72
2022-10-24T10:46:05.481Z,69.72
2022-10-24T10:47:05.478Z,69.52
2022-10-24T10:48:05.500Z,69.82
2022-10-24T10:49:05.431Z,69.92
2022-10-24T10:50:05.488Z,69.72
2022-10-24T10:51:08.170Z,69.32
2022-10-24T10:52:05.420Z,69.42
2022-10-24T10:53:05.368Z,69.52
2022-10-24T10:54:05.378Z,69.72
2022-10-24T10:55:05.379Z,69.82
2022-10-24T10:56:05.595Z,69.92
2022-10-24T10:57:05.361Z,70.02
2022-10-24T10:58:06.951Z,70.22
2022-10-24T10:59:05.296Z,69.92
2022-10-24T11:00:05.356Z,69.92
2022-10-24T11:01:05.345Z,70.12
2022-10-24T11:02:05.343Z,70.02
2022-10-24T11:03:06.700Z,70.12
2022-10-24T11:04:05.411Z,70.12
2022-10-24T11:05:05.391Z,69.82
2022-10-24T11:06:05.194Z,69.92
2022-10-24T11:07:05.193Z,70.02
2022-10-24T11:08:05.199Z,70.06
2022-10-24T11:09:05.180Z,70.12
2022-10-24T11:10:05.146Z,70.12
2022-10-24T11:11:05.145Z,70.02
2022-10-24T11:12:05.324Z,70.22
2022-10-24T11:13:05.115Z,69.62
2022-10-24T11:14:05.113Z,69.72
2022-10-24T11:15:05.144Z,70.02
2022-10-24T11:16:05.093Z,70.22
2022-10-24T11:17:05.057Z,70.22
2022-10-24T11:18:05.061Z,70.53
2022-10-24T11:19:05.033Z,70.32
2022-10-24T11:20:05.037Z,70.32
2022-10-24T11:21:05.085Z,70.32
2022-10-24T11:22:05.030Z,70.19
2022-10-24T11:23:06.572Z,70.73
2022-10-24T11:24:06.035Z,70.50
2022-10-24T11:25:04.969Z,69.69
2022-10-24T11:26:04.968Z,70.19
2022-10-24T11:27:04.972Z,70.09
2022-10-24T11:28:04.923Z,70.53
2022-10-24T11:29:04.925Z,70.93
2022-10-24T11:30:04.929Z,71.23
2022-10-24T11:31:04.902Z,70.93
2022-10-24T11:32:05.101Z,70.83
2022-10-24T11:33:04.887Z,70.93
2022-10-24T11:34:04.874Z,71.13
2022-10-24T11:35:05.074Z,71.33
2022-10-24T11:36:04.887Z,71.44
2022-10-24T11:37:04.813Z,71.13
2022-10-24T11:38:04.814Z,70.93
2022-10-24T11:39:04.831Z,70.93
2022-10-24T11:40:04.795Z,71.03
2022-10-24T11:41:04.781Z,71.13
2022-10-24T11:42:04.752Z,70.83
2022-10-24T11:43:04.759Z,71.13
2022-10-24T11:44:05.750Z,70.93
2022-10-24T11:45:04.752Z,71.23
2022-10-24T11:46:04.791Z,71.03
2022-10-24T11:47:06.566Z,70.62
2022-10-24T11:48:04.651Z,70.42
2022-10-24T11:49:04.698Z,70.32
2022-10-24T11:50:04.895Z,70.22
2022-10-24T11:51:04.634Z,70.32
2022-10-24T11:52:04.637Z,70.46
2022-10-24T11:53:04.591Z,70.53
2022-10-24T11:54:04.622Z,70.12
2022-10-24T11:55:04.573Z,70.32
2022-10-24T11:56:05.108Z,70.42
2022-10-24T11:57:06.245Z,70.32
2022-10-24T11:58:06.280Z,70.42
2022-10-24T11:59:04.538Z,70.62
2022-10-24T12:00:04.503Z,70.62
2022-10-24T12:01:05.289Z,70.62
2022-10-24T12:02:04.513Z,70.62
2022-10-24T12:03:04.501Z,70.42
2022-10-24T12:04:04.479Z,70.62
2022-10-24T12:05:04.435Z,70.76
2022-10-24T12:06:07.192Z,70.83
2022-10-24T12:07:04.412Z,70.93
2022-10-24T12:08:04.485Z,71.06
2022-10-24T12:09:04.716Z,71.17
2022-10-24T12:10:04.883Z,71.13
2022-10-24T12:11:04.396Z,71.13
2022-10-24T12:12:04.408Z,71.13
2022-10-24T12:13:05.465Z,70.86
2022-10-24T12:14:04.478Z,71.26
2022-10-24T12:15:04.343Z,71.37
2022-10-24T12:16:04.280Z,71.47
2022-10-24T12:17:04.277Z,71.03
2022-10-24T12:18:05.008Z,70.97
2022-10-24T12:19:04.358Z,70.97
2022-10-24T12:20:04.507Z,70.93
2022-10-24T12:21:04.308Z,71.03
2022-10-24T12:22:04.406Z,70.53
2022-10-24T12:23:04.192Z,70.76
2022-10-24T12:24:04.471Z,70.97
2022-10-24T12:25:04.178Z,71.06
2022-10-24T12:26:04.414Z,71.26
2022-10-24T12:27:04.187Z,71.47
2022-10-24T12:28:04.160Z,71.67
2022-10-24T12:29:04.148Z,71.06
2022-10-24T12:30:04.362Z,70.86
2022-10-24T12:31:04.157Z,71.06
2022-10-24T12:32:04.123Z,71.26
2022-10-24T12:33:04.366Z,71.57
2022-10-24T12:34:04.270Z,72.00
2022-10-24T12:35:29.871Z,71.91
2022-10-24T12:36:04.725Z,72.11
2022-10-24T12:37:04.071Z,71.87
2022-10-24T12:38:04.059Z,71.80
2022-10-24T12:39:04.276Z,71.80
2022-10-24T12:40:05.979Z,72.11
2022-10-24T12:41:04.007Z,72.20
2022-10-24T12:42:03.989Z,72.51
2022-10-24T12:43:03.970Z,74.05
2022-10-24T12:44:03.974Z,75.60
2022-10-24T12:45:06.325Z,76.62
2022-10-24T12:46:09.406Z,76.42
2022-10-24T12:47:03.950Z,76.72
2022-10-24T12:48:03.983Z,77.12
2022-10-24T12:49:03.882Z,76.92
2022-10-24T12:50:03.863Z,77.32
2022-10-24T12:51:04.464Z,76.92
2022-10-24T12:52:04.949Z,77.12
2022-10-24T12:53:04.881Z,77.02
2022-10-24T12:54:03.815Z,77.22
2022-10-24T12:55:03.795Z,77.62
2022-10-24T12:56:06.102Z,77.42
2022-10-24T12:57:05.768Z,77.32
2022-10-24T12:58:07.919Z,77.22
2022-10-24T12:59:03.770Z,77.32